Time;durP1;ratioP1;P1;durP2;ratioP2;P2;SDS_P1;SDS_P2;PMS_P1;PMS_P2;Temp;Humidity;BMP_temperature;BMP_pressure;BME280_temperature;BME280_humidity;BME280_pressure;Samples;Min_cycle;Max_cycle;Signal;HPM_P1;HPM_P2
2023/08/05 00:01:00;;;;;;;7.80;5.07;;;15.50;99.90;;;;;;5034664;28;20232;-74
2023/08/05 00:03:26;;;;;;;7.18;4.78;;;15.50;99.90;;;;;;5035125;28;20198;-73
2023/08/05 00:05:51;;;;;;;7.53;4.88;;;15.50;99.90;;;;;;5034148;28;20218;-73
2023/08/05 00:08:17;;;;;;;10.35;4.78;;;15.40;99.90;;;;;;5016830;28;20186;-73
2023/08/05 00:10:44;;;;;;;7.65;4.82;;;15.30;99.90;;;;;;5034862;28;20224;-73
2023/08/05 00:13:10;;;;;;;9.43;4.45;;;15.20;99.90;;;;;;5016652;28;20179;-73
2023/08/05 00:15:36;;;;;;;9.75;4.20;;;15.20;99.90;;;;;;5034465;28;20620;-73
2023/08/05 00:18:02;;;;;;;13.40;4.25;;;15.20;99.90;;;;;;5017357;28;20257;-73
2023/08/05 00:20:28;;;;;;;6.05;4.43;;;15.10;99.90;;;;;;5033885;28;20171;-73
2023/08/05 00:22:54;;;;;;;8.32;4.50;;;15.10;99.90;;;;;;5034477;28;20171;-73
2023/08/05 00:25:19;;;;;;;8.57;4.93;;;15.10;99.90;;;;;;5034300;28;20199;-73
2023/08/05 00:27:45;;;;;;;8.23;4.07;;;15.10;99.90;;;;;;5016238;28;20221;-73
2023/08/05 00:30:11;;;;;;;7.25;4.28;;;15.10;99.90;;;;;;5034629;28;20172;-73
2023/08/05 00:32:37;;;;;;;8.65;4.80;;;15.10;99.90;;;;;;5033925;28;20195;-73
2023/08/05 00:35:04;;;;;;;9.38;4.78;;;15.10;99.90;;;;;;5015908;28;20202;-74
2023/08/05 00:37:31;;;;;;;6.40;4.45;;;15.00;99.90;;;;;;5016808;28;20230;-73
2023/08/05 00:39:58;;;;;;;6.03;4.60;;;14.90;99.90;;;;;;5016209;28;20197;-73
2023/08/05 00:42:25;;;;;;;7.63;4.35;;;14.90;99.90;;;;;;5016054;28;20258;-73
2023/08/05 00:44:51;;;;;;;5.40;4.55;;;14.80;99.90;;;;;;5016253;28;20183;-73
2023/08/05 00:47:20;;;;;;;7.53;4.03;;;14.80;99.90;;;;;;5033776;28;20245;-73
2023/08/05 00:49:49;;;;;;;5.25;4.38;;;14.80;99.90;;;;;;5033832;28;20198;-73
2023/08/05 00:52:16;;;;;;;7.38;4.32;;;14.80;99.90;;;;;;5016041;28;20649;-73
2023/08/05 00:54:42;;;;;;;4.75;3.78;;;14.70;99.90;;;;;;5015820;28;20186;-73
2023/08/05 00:57:11;;;;;;;5.95;4.18;;;14.70;99.90;;;;;;5016206;28;20294;-73
2023/08/05 00:59:37;;;;;;;6.72;3.70;;;14.60;99.90;;;;;;5015828;28;20197;-73
2023/08/05 01:02:03;;;;;;;6.57;4.00;;;14.60;99.90;;;;;;5033566;28;20706;-73
2023/08/05 01:04:29;;;;;;;11.95;4.55;;;14.60;99.90;;;;;;5033320;28;20171;-74
2023/08/05 01:06:56;;;;;;;6.05;4.30;;;14.60;99.90;;;;;;5033257;28;20574;-73
2023/08/05 01:09:22;;;;;;;5.07;4.00;;;14.60;99.90;;;;;;5015701;28;20221;-74
2023/08/05 01:11:48;;;;;;;5.03;4.15;;;14.60;99.90;;;;;;5033357;28;20163;-73
2023/08/05 01:14:14;;;;;;;6.50;4.30;;;14.70;99.90;;;;;;5034055;28;20172;-73
2023/08/05 01:16:39;;;;;;;8.00;4.85;;;14.70;99.90;;;;;;5015832;28;20213;-73
2023/08/05 01:19:13;;;;;;;6.35;4.53;;;14.70;99.90;;;;;;5015722;28;20728;-73
2023/08/05 01:22:07;;;;;;;8.20;4.25;;;14.70;99.90;;;;;;5033153;28;20174;-73
2023/08/05 01:24:51;;;;;;;5.35;4.35;;;14.80;99.90;;;;;;5033177;28;20282;-73
2023/08/05 01:27:17;;;;;;;5.65;4.32;;;14.80;99.90;;;;;;5015538;28;20198;-73
2023/08/05 01:29:43;;;;;;;5.22;4.28;;;14.70;99.90;;;;;;5015574;28;20194;-73
2023/08/05 01:32:10;;;;;;;7.13;5.07;;;14.70;99.90;;;;;;5033190;28;20171;-73
2023/08/05 01:34:38;;;;;;;7.45;4.72;;;14.70;99.90;;;;;;5037236;28;20531;-73
2023/08/05 01:37:04;;;;;;;6.55;4.97;;;14.60;99.90;;;;;;5019280;28;20223;-73
2023/08/05 01:39:29;;;;;;;6.32;4.50;;;14.60;99.90;;;;;;5037636;28;20242;-73
2023/08/05 01:41:55;;;;;;;7.85;4.13;;;14.50;99.90;;;;;;5037282;28;20171;-73
2023/08/05 01:44:22;;;;;;;7.13;4.40;;;14.50;99.90;;;;;;5037120;28;20171;-73
2023/08/05 01:46:48;;;;;;;9.15;4.80;;;14.50;99.90;;;;;;5036846;28;20209;-73
2023/08/05 01:49:13;;;;;;;8.65;4.90;;;14.40;99.90;;;;;;5019157;28;20179;-73
2023/08/05 01:51:39;;;;;;;10.45;5.40;;;14.40;99.90;;;;;;5036632;28;20177;-74
2023/08/05 01:54:05;;;;;;;11.63;5.88;;;14.40;99.90;;;;;;5018977;28;20179;-73
2023/08/05 01:56:30;;;;;;;8.50;6.00;;;14.40;99.90;;;;;;5036918;28;20217;-73
2023/08/05 01:58:56;;;;;;;10.65;7.35;;;14.30;99.90;;;;;;5037202;28;20667;-73
2023/08/05 02:01:22;;;;;;;10.80;6.45;;;14.30;99.90;;;;;;5036639;28;20266;-73
2023/08/05 02:03:47;;;;;;;10.88;6.85;;;14.30;99.90;;;;;;5036991;28;20246;-73
2023/08/05 02:06:14;;;;;;;13.20;7.30;;;14.30;99.90;;;;;;5018438;28;20222;-73
2023/08/05 02:08:40;;;;;;;12.55;7.95;;;14.20;99.90;;;;;;5018762;28;20266;-73
2023/08/05 02:11:05;;;;;;;11.13;7.63;;;14.20;99.90;;;;;;5036778;28;20727;-73
2023/08/05 02:13:31;;;;;;;11.75;7.85;;;14.20;99.90;;;;;;5036498;28;20266;-73
2023/08/05 02:15:57;;;;;;;12.50;7.97;;;14.20;99.90;;;;;;5036422;28;20175;-73
2023/08/05 02:18:23;;;;;;;13.57;8.68;;;14.10;99.90;;;;;;5036384;28;20179;-74
2023/08/05 02:20:48;;;;;;;13.38;8.02;;;14.10;99.90;;;;;;5036052;28;20164;-73
2023/08/05 02:23:14;;;;;;;14.65;7.18;;;14.00;99.90;;;;;;5036282;28;20180;-73
2023/08/05 02:25:40;;;;;;;16.55;6.68;;;14.00;99.90;;;;;;5018349;28;20559;-73
2023/08/05 02:28:06;;;;;;;17.15;7.90;;;14.00;99.90;;;;;;5036114;28;20187;-73
2023/08/05 02:30:31;;;;;;;10.85;7.40;;;14.00;99.90;;;;;;5036890;28;20233;-74
2023/08/05 02:32:57;;;;;;;19.77;8.00;;;14.00;99.90;;;;;;5036138;28;20174;-73
2023/08/05 02:35:23;;;;;;;18.30;7.15;;;14.00;99.90;;;;;;5035945;28;20261;-73
2023/08/05 02:37:48;;;;;;;16.38;7.82;;;13.90;99.90;;;;;;5036093;28;20249;-73
2023/08/05 02:40:14;;;;;;;17.77;6.90;;;13.90;99.90;;;;;;5036008;28;20265;-73
2023/08/05 02:42:40;;;;;;;14.32;6.80;;;13.90;99.90;;;;;;5036016;28;20601;-73
2023/08/05 02:45:06;;;;;;;16.88;7.15;;;13.90;99.90;;;;;;5017533;28;20210;-73
2023/08/05 02:47:32;;;;;;;15.70;7.07;;;13.90;99.90;;;;;;5036195;28;20199;-73
2023/08/05 02:49:58;;;;;;;12.15;6.90;;;13.80;99.90;;;;;;5035858;28;20171;-73
2023/08/05 02:52:23;;;;;;;22.88;7.45;;;13.80;99.90;;;;;;5035675;28;20175;-73
2023/08/05 02:54:49;;;;;;;9.60;6.22;;;13.90;99.90;;;;;;5036261;28;20181;-73
2023/08/05 02:57:15;;;;;;;14.15;6.15;;;13.90;99.90;;;;;;5035688;28;20226;-73
2023/08/05 02:59:41;;;;;;;14.55;7.25;;;13.90;99.90;;;;;;5035643;28;20186;-72
2023/08/05 03:02:06;;;;;;;12.40;7.07;;;13.90;99.90;;;;;;5018034;28;20210;-73
2023/08/05 03:04:32;;;;;;;10.77;7.07;;;13.90;99.90;;;;;;5035696;28;20331;-73
2023/08/05 03:06:58;;;;;;;8.68;6.78;;;13.90;99.90;;;;;;5017664;28;20222;-73
2023/08/05 03:09:23;;;;;;;9.90;6.97;;;14.00;99.90;;;;;;5018398;28;20160;-73
2023/08/05 03:11:49;;;;;;;12.23;7.70;;;13.90;99.90;;;;;;5035805;28;20171;-73
2023/08/05 03:14:15;;;;;;;11.63;7.90;;;13.90;99.90;;;;;;5035913;28;20254;-73
2023/08/05 03:16:41;;;;;;;10.05;7.45;;;14.00;99.90;;;;;;5035760;28;20270;-73
2023/08/05 03:19:07;;;;;;;11.38;8.23;;;13.90;99.90;;;;;;5035440;28;20739;-73
2023/08/05 03:21:32;;;;;;;12.95;8.50;;;13.90;99.90;;;;;;5017570;28;20277;-73
2023/08/05 03:23:58;;;;;;;16.10;9.57;;;13.90;99.90;;;;;;5036127;28;20186;-73
2023/08/05 03:26:24;;;;;;;20.20;9.88;;;13.90;99.90;;;;;;5035390;28;20207;-73
2023/08/05 03:28:50;;;;;;;29.08;9.40;;;13.90;99.90;;;;;;5035769;28;20531;-73
2023/08/05 03:31:15;;;;;;;22.02;10.13;;;13.90;99.90;;;;;;5017610;28;20172;-73
2023/08/05 03:33:45;;;;;;;24.00;8.23;;;13.90;99.90;;;;;;5017428;28;20588;-73
2023/08/05 03:36:10;;;;;;;18.92;8.10;;;13.90;99.90;;;;;;5035018;28;20207;-73
2023/08/05 03:38:36;;;;;;;14.70;7.80;;;13.80;99.90;;;;;;5035489;28;20604;-73
2023/08/05 03:41:05;;;;;;;15.55;7.38;;;13.80;99.90;;;;;;5017503;28;20184;-73
2023/08/05 03:43:31;;;;;;;11.15;7.05;;;13.80;99.90;;;;;;5035287;28;20690;-73
2023/08/05 03:45:56;;;;;;;10.35;7.32;;;13.80;99.90;;;;;;5035174;28;20207;-73
2023/08/05 03:48:22;;;;;;;31.35;8.07;;;13.70;99.90;;;;;;5035391;28;20221;-73
2023/08/05 03:50:48;;;;;;;10.32;7.60;;;13.70;99.90;;;;;;5035038;28;20250;-73
2023/08/05 03:53:14;;;;;;;19.88;7.95;;;13.70;99.90;;;;;;5036260;28;20301;-73
2023/08/05 03:55:40;;;;;;;19.55;8.07;;;13.60;99.90;;;;;;5038673;28;20167;-73
2023/08/05 03:58:07;;;;;;;14.73;9.35;;;13.60;99.90;;;;;;5024268;28;20206;-73
2023/08/05 04:00:34;;;;;;;35.08;9.10;;;13.60;99.90;;;;;;5040326;28;20163;-73
2023/08/05 04:03:00;;;;;;;22.80;8.93;;;13.60;99.90;;;;;;5020098;28;20191;-73
2023/08/05 04:05:26;;;;;;;28.42;9.52;;;13.50;99.90;;;;;;5034856;28;20666;-72
2023/08/05 04:07:53;;;;;;;20.35;9.45;;;13.30;99.90;;;;;;5034694;28;20567;-73
2023/08/05 04:10:22;;;;;;;19.70;8.95;;;13.30;99.90;;;;;;5016876;28;20218;-72
2023/08/05 04:12:48;;;;;;;23.83;10.57;;;13.30;99.90;;;;;;5016915;28;20178;-73
2023/08/05 04:15:14;;;;;;;25.52;10.13;;;13.40;99.90;;;;;;5034961;28;20175;-72
2023/08/05 04:17:40;;;;;;;31.70;10.35;;;13.30;99.90;;;;;;5016737;28;20206;-73
2023/08/05 04:20:06;;;;;;;13.98;10.15;;;13.30;99.90;;;;;;5034328;28;20175;-73
2023/08/05 04:22:34;;;;;;;18.80;9.48;;;13.30;99.90;;;;;;5034319;28;20194;-73
2023/08/05 04:25:00;;;;;;;24.17;10.45;;;13.40;99.90;;;;;;5016392;28;20175;-73
2023/08/05 04:27:26;;;;;;;13.75;9.18;;;13.40;99.90;;;;;;5034156;28;20198;-73
2023/08/05 04:29:52;;;;;;;16.10;9.38;;;13.50;99.90;;;;;;5034169;28;20187;-73
2023/08/05 04:32:17;;;;;;;20.08;9.02;;;13.50;99.90;;;;;;5034274;28;20170;-73
2023/08/05 04:34:44;;;;;;;13.55;9.68;;;13.50;99.90;;;;;;5034164;28;20262;-73
2023/08/05 04:37:18;;;;;;;14.10;8.63;;;13.50;99.90;;;;;;5033720;28;20261;-73
2023/08/05 04:39:44;;;;;;;13.05;8.27;;;13.50;99.90;;;;;;5034401;28;20189;-73
2023/08/05 04:42:10;;;;;;;12.50;8.93;;;13.50;99.90;;;;;;5034117;28;20175;-73
2023/08/05 04:44:39;;;;;;;15.15;9.73;;;13.50;99.90;;;;;;5034124;28;20187;-73
2023/08/05 04:47:06;;;;;;;19.27;9.95;;;13.50;99.90;;;;;;5016124;28;20215;-73
2023/08/05 04:49:32;;;;;;;12.38;9.80;;;13.50;99.90;;;;;;5016198;28;20179;-73
2023/08/05 04:51:57;;;;;;;15.23;10.00;;;13.60;99.90;;;;;;5033544;28;20167;-73
2023/08/05 04:54:23;;;;;;;12.57;9.20;;;13.60;99.90;;;;;;5034200;28;20179;-73
2023/08/05 04:56:49;;;;;;;15.00;9.88;;;13.50;99.90;;;;;;5016118;28;20209;-73
2023/08/05 04:59:14;;;;;;;13.95;9.57;;;13.50;99.90;;;;;;5016076;28;20241;-73
2023/08/05 05:01:40;;;;;;;11.70;8.68;;;13.60;99.90;;;;;;5033687;28;20224;-73
2023/08/05 05:04:06;;;;;;;14.43;9.45;;;13.60;99.90;;;;;;5033626;28;20167;-73
2023/08/05 05:06:31;;;;;;;13.25;8.35;;;13.60;99.90;;;;;;5015408;28;20668;-73
2023/08/05 05:08:57;;;;;;;24.75;9.43;;;13.60;99.90;;;;;;5015778;28;20175;-73
2023/08/05 05:11:23;;;;;;;22.40;8.57;;;13.70;99.90;;;;;;5033544;28;20181;-73
2023/08/05 05:13:50;;;;;;;13.20;9.88;;;13.60;99.90;;;;;;5033584;28;20171;-73
2023/08/05 05:16:19;;;;;;;17.25;10.48;;;13.60;99.90;;;;;;5015702;28;20754;-73
2023/08/05 05:18:45;;;;;;;21.30;12.25;;;13.60;99.90;;;;;;5016270;28;20183;-73
2023/08/05 05:21:10;;;;;;;18.13;11.80;;;13.60;99.90;;;;;;5034773;28;20186;-73
2023/08/05 05:23:38;;;;;;;19.10;12.88;;;13.60;99.90;;;;;;5034337;28;20186;-73
2023/08/05 05:26:04;;;;;;;19.27;13.45;;;13.60;99.90;;;;;;5034973;28;20647;-73
2023/08/05 05:28:29;;;;;;;18.83;12.48;;;13.60;99.90;;;;;;5016285;28;20175;-73
2023/08/05 05:30:55;;;;;;;17.23;12.70;;;13.70;99.90;;;;;;5034926;28;20186;-73
2023/08/05 05:33:21;;;;;;;15.65;12.52;;;13.70;99.90;;;;;;5017435;28;20182;-73
2023/08/05 05:35:49;;;;;;;15.25;11.15;;;13.80;99.90;;;;;;5033144;28;20540;-72
2023/08/05 05:38:15;;;;;;;11.98;9.98;;;13.90;99.90;;;;;;5033200;28;20194;-72
2023/08/05 05:40:41;;;;;;;14.48;11.48;;;14.00;99.90;;;;;;5033219;28;20171;-72
2023/08/05 05:43:08;;;;;;;14.52;10.88;;;14.10;99.90;;;;;;5033637;28;20171;-72
2023/08/05 05:45:37;;;;;;;14.55;9.82;;;14.20;99.90;;;;;;5015261;28;20237;-72
2023/08/05 05:48:03;;;;;;;12.40;9.00;;;14.20;99.90;;;;;;5033128;28;20245;-72
2023/08/05 05:50:29;;;;;;;16.67;10.15;;;14.30;99.90;;;;;;5032839;28;20179;-72
2023/08/05 05:52:55;;;;;;;14.13;10.00;;;14.40;99.90;;;;;;5033442;28;20173;-72
2023/08/05 05:55:21;;;;;;;13.90;9.07;;;14.40;99.90;;;;;;5032900;28;20642;-72
2023/08/05 05:57:46;;;;;;;12.13;8.57;;;14.40;99.90;;;;;;5032933;28;20195;-72
2023/08/05 06:00:14;;;;;;;12.43;8.40;;;14.50;99.90;;;;;;5015366;28;20202;-72
2023/08/05 06:02:40;;;;;;;13.50;10.20;;;14.60;99.90;;;;;;5032983;28;20645;-72
2023/08/05 06:05:07;;;;;;;12.98;9.25;;;14.70;99.90;;;;;;5015175;28;20217;-72
2023/08/05 06:07:33;;;;;;;15.10;10.00;;;14.70;99.90;;;;;;5032572;28;20268;-73
2023/08/05 06:09:59;;;;;;;11.68;9.13;;;14.80;99.90;;;;;;5015154;28;20691;-73
2023/08/05 06:12:30;;;;;;;12.80;9.63;;;14.90;99.90;;;;;;5015123;28;20628;-72
2023/08/05 06:14:56;;;;;;;12.38;9.35;;;14.90;99.90;;;;;;5033215;28;20177;-72
2023/08/05 06:17:22;;;;;;;12.50;9.00;;;15.00;99.90;;;;;;5032718;28;20715;-73
2023/08/05 06:19:47;;;;;;;14.90;9.55;;;15.10;99.90;;;;;;5035043;28;20175;-73
2023/08/05 06:22:13;;;;;;;15.75;11.40;;;15.10;99.90;;;;;;5036118;28;20210;-73
2023/08/05 06:24:39;;;;;;;16.92;12.35;;;15.20;99.90;;;;;;5018609;28;20175;-73
2023/08/05 06:27:05;;;;;;;17.20;12.23;;;15.20;99.90;;;;;;5036268;28;20253;-72
2023/08/05 06:29:31;;;;;;;15.25;10.93;;;15.10;99.90;;;;;;5018547;28;20179;-73
2023/08/05 06:31:57;;;;;;;15.70;10.98;;;15.10;99.90;;;;;;5019276;28;20258;-73
2023/08/05 06:34:23;;;;;;;20.58;11.95;;;15.30;99.90;;;;;;5037198;28;20247;-74
2023/08/05 06:36:49;;;;;;;18.40;11.93;;;15.40;99.90;;;;;;5036094;28;20222;-73
2023/08/05 06:39:15;;;;;;;18.35;11.82;;;15.60;99.90;;;;;;5036705;28;20661;-73
2023/08/05 06:41:40;;;;;;;15.27;10.95;;;15.70;99.90;;;;;;5036400;28;20180;-73
2023/08/05 06:44:06;;;;;;;16.77;11.05;;;15.90;99.90;;;;;;5036069;28;20646;-73
2023/08/05 06:46:32;;;;;;;15.77;10.57;;;16.10;99.90;;;;;;5036404;28;20210;-74
2023/08/05 06:48:58;;;;;;;16.33;10.98;;;16.30;99.90;;;;;;5036471;28;20624;-74
2023/08/05 06:51:24;;;;;;;14.38;10.05;;;16.50;99.90;;;;;;5035775;28;20632;-73
2023/08/05 06:53:49;;;;;;;14.23;11.00;;;16.70;99.90;;;;;;5036022;28;20193;-73
2023/08/05 06:56:15;;;;;;;12.82;10.20;;;16.80;99.90;;;;;;5035748;28;20254;-74
2023/08/05 06:58:41;;;;;;;15.48;10.63;;;16.90;99.90;;;;;;5035942;28;20270;-74
2023/08/05 07:01:07;;;;;;;16.33;10.63;;;16.80;99.90;;;;;;5035722;28;20175;-73
2023/08/05 07:03:32;;;;;;;15.40;10.45;;;16.70;99.90;;;;;;5035684;28;20640;-73
2023/08/05 07:05:58;;;;;;;14.15;10.10;;;16.70;99.90;;;;;;5035561;28;20647;-73
2023/08/05 07:08:25;;;;;;;13.55;10.27;;;16.60;99.90;;;;;;5017588;28;20186;-73
2023/08/05 07:10:58;;;;;;;14.02;8.80;;;16.50;99.90;;;;;;5035683;28;20167;-73
2023/08/05 07:13:27;;;;;;;12.10;8.77;;;16.50;99.90;;;;;;5036154;28;20473;-73
2023/08/05 07:16:00;;;;;;;13.68;8.23;;;16.60;99.90;;;;;;5035834;28;20182;-73
2023/08/05 07:18:26;;;;;;;9.60;7.97;;;16.70;99.90;;;;;;5035340;28;20179;-73
2023/08/05 07:20:52;;;;;;;11.43;8.18;;;16.60;99.90;;;;;;5035206;28;20245;-73
2023/08/05 07:23:18;;;;;;;11.40;7.50;;;16.70;99.90;;;;;;5035095;28;20168;-74
2023/08/05 07:25:44;;;;;;;10.20;7.40;;;16.80;99.90;;;;;;5035301;28;20197;-74
2023/08/05 07:28:09;;;;;;;10.20;6.93;;;16.90;99.90;;;;;;5017179;28;20249;-74
2023/08/05 07:30:35;;;;;;;10.55;7.55;;;16.90;99.90;;;;;;5017135;28;20175;-73
2023/08/05 07:33:04;;;;;;;9.95;7.25;;;16.90;99.90;;;;;;5017413;28;20266;-74
2023/08/05 07:35:32;;;;;;;12.98;7.32;;;17.00;99.90;;;;;;5034772;28;20190;-74
2023/08/05 07:37:58;;;;;;;10.02;6.63;;;17.10;99.90;;;;;;5016863;28;20211;-73
2023/08/05 07:40:24;;;;;;;10.52;7.00;;;17.30;99.90;;;;;;5035073;28;20661;-73
2023/08/05 07:42:50;;;;;;;9.38;7.18;;;17.30;99.90;;;;;;5035349;28;20239;-73
2023/08/05 07:45:21;;;;;;;9.52;7.28;;;17.40;99.90;;;;;;5034630;28;20274;-73
2023/08/05 07:47:47;;;;;;;10.77;6.75;;;17.40;99.90;;;;;;5035271;28;20245;-73
2023/08/05 07:50:20;;;;;;;11.48;6.63;;;17.60;99.90;;;;;;5017488;28;20206;-73
2023/08/05 07:52:45;;;;;;;9.23;6.65;;;17.60;99.90;;;;;;5035521;28;20246;-73
2023/08/05 07:55:11;;;;;;;9.52;5.57;;;17.60;99.90;;;;;;5017275;28;20611;-73
2023/08/05 07:57:37;;;;;;;9.00;5.85;;;17.60;99.90;;;;;;5035155;28;20198;-74
2023/08/05 08:00:04;;;;;;;8.00;6.05;;;17.70;99.90;;;;;;5035145;28;20183;-74
2023/08/05 08:02:30;;;;;;;10.88;7.13;;;17.80;99.90;;;;;;5016537;28;20179;-73
2023/08/05 08:04:57;;;;;;;9.77;6.40;;;17.90;99.90;;;;;;5034209;28;20208;-73
2023/08/05 08:07:23;;;;;;;10.23;5.60;;;17.80;99.90;;;;;;5034037;28;20298;-73
2023/08/05 08:09:49;;;;;;;8.57;6.05;;;17.80;99.90;;;;;;5016495;28;20679;-73
2023/08/05 08:12:15;;;;;;;11.10;6.43;;;18.00;99.90;;;;;;5034181;28;20198;-73
2023/08/05 08:14:40;;;;;;;9.63;5.97;;;18.20;99.90;;;;;;5034631;28;20175;-73
2023/08/05 08:17:06;;;;;;;9.20;6.43;;;18.40;99.90;;;;;;5016481;28;20259;-73
2023/08/05 08:19:32;;;;;;;14.35;6.93;;;18.30;99.90;;;;;;5034016;28;20175;-73
2023/08/05 08:21:58;;;;;;;8.82;6.30;;;18.40;99.90;;;;;;5033805;28;20167;-73
2023/08/05 08:24:23;;;;;;;8.13;6.57;;;18.60;99.90;;;;;;5033908;28;20175;-73
2023/08/05 08:26:49;;;;;;;10.43;7.03;;;18.60;99.90;;;;;;5034060;28;20206;-73
2023/08/05 08:29:15;;;;;;;9.45;6.90;;;18.60;99.90;;;;;;5034062;28;20199;-73
2023/08/05 08:31:40;;;;;;;7.75;5.40;;;18.40;99.90;;;;;;5033949;28;20175;-73
2023/08/05 08:34:06;;;;;;;8.32;6.38;;;18.40;99.90;;;;;;5033799;28;20171;-73
2023/08/05 08:36:32;;;;;;;8.55;5.53;;;18.50;99.90;;;;;;5033403;28;20320;-73
2023/08/05 08:38:58;;;;;;;8.85;5.55;;;18.90;99.90;;;;;;5033826;28;20179;-73
2023/08/05 08:41:25;;;;;;;8.13;5.20;;;19.00;99.90;;;;;;5015536;28;20333;-73
2023/08/05 08:43:52;;;;;;;7.75;5.22;;;19.30;99.90;;;;;;5033657;28;20696;-73
2023/08/05 08:46:19;;;;;;;6.03;5.15;;;19.10;99.90;;;;;;5033567;28;20222;-73
2023/08/05 08:48:48;;;;;;;6.75;5.43;;;18.80;99.90;;;;;;5015934;28;20175;-74
2023/08/05 08:51:17;;;;;;;8.18;5.82;;;18.70;99.90;;;;;;5015508;28;20639;-73
2023/08/05 08:53:46;;;;;;;7.30;5.22;;;18.90;99.90;;;;;;5034164;28;20171;-73
2023/08/05 08:56:11;;;;;;;8.40;5.70;;;19.00;99.90;;;;;;5033731;28;20195;-73
2023/08/05 08:58:37;;;;;;;10.48;5.68;;;19.10;99.90;;;;;;5034221;28;20183;-74
2023/08/05 09:01:04;;;;;;;10.20;6.22;;;19.30;99.90;;;;;;5033467;28;20179;-73
2023/08/05 09:03:33;;;;;;;9.73;5.55;;;19.10;99.90;;;;;;5033653;28;20206;-74
2023/08/05 09:05:59;;;;;;;8.85;5.47;;;19.20;99.90;;;;;;5033019;28;20195;-73
2023/08/05 09:08:25;;;;;;;7.18;5.30;;;19.50;99.90;;;;;;5033403;28;20205;-74
2023/08/05 09:10:51;;;;;;;9.20;5.53;;;19.50;99.90;;;;;;5015762;28;20564;-73
2023/08/05 09:13:19;;;;;;;7.55;5.30;;;19.30;99.90;;;;;;5033410;28;20176;-74
2023/08/05 09:15:47;;;;;;;7.43;5.05;;;19.50;99.90;;;;;;5033417;28;20258;-74
2023/08/05 09:18:13;;;;;;;18.45;5.93;;;20.00;99.90;;;;;;5015820;28;20721;-74
2023/08/05 09:20:38;;;;;;;7.53;5.10;;;20.50;99.90;;;;;;5015634;28;20175;-74
2023/08/05 09:23:09;;;;;;;7.35;4.78;;;21.00;99.90;;;;;;5033413;28;20517;-74
2023/08/05 09:25:40;;;;;;;17.55;3.67;;;21.30;99.90;;;;;;5015568;28;20623;-74
2023/08/05 09:28:06;;;;;;;5.78;3.90;;;21.10;1.00;;;;;;5033228;28;20597;-74
2023/08/05 09:30:33;;;;;;;6.20;4.00;;;21.00;1.00;;;;;;5015625;28;20628;-74
2023/08/05 09:32:59;;;;;;;5.30;3.85;;;21.20;1.00;;;;;;5015797;28;20183;-74
2023/08/05 09:35:29;;;;;;;3.97;3.22;;;21.50;1.00;;;;;;5015574;28;20554;-74
2023/08/05 09:37:55;;;;;;;6.15;3.90;;;21.70;1.00;;;;;;5015290;28;20750;-74
2023/08/05 09:40:25;;;;;;;3.67;3.13;;;21.80;99.90;;;;;;5015701;28;20286;-74
2023/08/05 09:43:00;;;;;;;6.22;3.60;;;22.00;1.00;;;;;;5033475;28;20172;-74
2023/08/05 09:45:28;;;;;;;5.75;3.80;;;22.20;1.00;;;;;;5015486;28;20695;-74
2023/08/05 09:48:03;;;;;;;9.32;4.10;;;22.30;99.90;;;;;;5015643;28;20234;-74
2023/08/05 09:50:36;;;;;;;6.55;4.20;;;22.40;99.90;;;;;;5033576;28;20190;-74
2023/08/05 09:53:04;;;;;;;5.90;4.68;;;22.40;99.90;;;;;;5034203;28;20160;-73
2023/08/05 09:55:30;;;;;;;7.28;4.65;;;22.40;1.00;;;;;;5037914;28;20179;-73
2023/08/05 09:57:56;;;;;;;7.22;5.07;;;22.20;1.00;;;;;;5037513;28;20321;-73
2023/08/05 10:00:23;;;;;;;7.85;5.30;;;22.10;1.00;;;;;;5037153;28;20171;-73
2023/08/05 10:02:50;;;;;;;6.57;4.70;;;22.20;99.90;;;;;;5037109;28;20175;-73
2023/08/05 10:05:16;;;;;;;8.70;5.50;;;22.30;1.00;;;;;;5019027;28;20195;-73
2023/08/05 10:07:42;;;;;;;8.25;5.97;;;22.10;99.90;;;;;;5036323;28;20199;-73
2023/08/05 10:10:16;;;;;;;8.57;6.38;;;21.70;1.00;;;;;;5018832;28;20167;-73
2023/08/05 10:13:08;;;;;;;8.32;6.30;;;21.80;99.90;;;;;;5018918;28;20175;-72
2023/08/05 10:15:38;;;;;;;7.97;6.22;;;21.70;99.90;;;;;;5036919;28;20194;-72
2023/08/05 10:18:09;;;;;;;8.80;6.97;;;21.00;99.90;;;;;;5036478;28;20194;-73
2023/08/05 10:20:36;;;;;;;8.35;6.63;;;20.50;1.00;;;;;;5036485;28;20171;-73
2023/08/05 10:23:09;;;;;;;9.18;7.03;;;20.10;1.00;;;;;;5036216;28;20626;-73
2023/08/05 10:25:42;;;;;;;8.52;7.00;;;19.70;1.00;;;;;;5036227;28;20558;-73
2023/08/05 10:28:09;;;;;;;9.38;7.63;;;19.50;16.30;;;;;;5018354;28;20191;-73
2023/08/05 10:30:42;;;;;;;8.70;6.82;;;19.50;1.00;;;;;;5036249;28;20171;-75
2023/08/05 10:33:07;;;;;;;6.43;5.43;;;19.80;1.00;;;;;;5036441;28;20627;-74
2023/08/05 10:35:43;;;;;;;6.55;4.97;;;20.20;1.00;;;;;;5036327;28;20270;-73
2023/08/05 10:38:22;;;;;;;5.40;4.50;;;20.50;99.90;;;;;;5035718;28;20543;-73
2023/08/05 10:40:52;;;;;;;6.45;4.70;;;20.90;1.00;;;;;;5018381;28;20171;-73
2023/08/05 10:43:37;;;;;;;6.25;5.15;;;21.20;99.90;;;;;;5035957;28;20175;-73
2023/08/05 10:46:06;;;;;;;5.60;4.35;;;21.40;99.90;;;;;;5035796;28;20563;-73
2023/08/05 10:48:43;;;;;;;6.93;4.68;;;21.70;1.00;;;;;;5018149;28;20640;-73
2023/08/05 10:51:11;;;;;;;6.63;5.03;;;21.50;1.00;;;;;;5036184;28;20175;-73
2023/08/05 10:53:38;;;;;;;8.43;5.22;;;21.10;1.00;;;;;;5035560;28;20167;-73
2023/08/05 10:56:10;;;;;;;7.40;5.32;;;21.10;99.90;;;;;;5017826;28;20220;-73
2023/08/05 10:58:37;;;;;;;5.03;4.20;;;21.20;99.90;;;;;;5017930;28;20171;-73
2023/08/05 11:01:05;;;;;;;6.88;4.78;;;21.60;99.90;;;;;;5017979;28;20171;-73
2023/08/05 11:03:43;;;;;;;5.15;4.40;;;21.90;1.00;;;;;;5035521;28;20179;-73
2023/08/05 11:06:11;;;;;;;7.28;4.38;;;22.20;99.90;;;;;;5035234;28;20183;-73
2023/08/05 11:08:39;;;;;;;5.57;4.53;;;21.80;53.30;;;;;;5035501;28;20568;-73
2023/08/05 11:11:10;;;;;;;7.60;4.95;;;21.50;1.00;;;;;;5035471;28;20181;-73
2023/08/05 11:13:41;;;;;;;7.05;5.03;;;21.50;99.90;;;;;;5017560;28;20636;-73
2023/08/05 11:16:16;;;;;;;8.18;6.05;;;21.70;99.90;;;;;;5035480;28;20672;-73
2023/08/05 11:18:55;;;;;;;7.47;6.25;;;21.80;99.90;;;;;;5035535;28;20186;-73
2023/08/05 11:21:20;;;;;;;6.00;5.40;;;21.90;99.90;;;;;;5035267;28;20507;-73
2023/08/05 11:23:46;;;;;;;6.22;5.00;;;22.10;99.90;;;;;;5017382;28;20190;-73
2023/08/05 11:26:13;;;;;;;7.15;4.93;;;22.00;99.90;;;;;;5034929;28;20223;-73
2023/08/05 11:28:45;;;;;;;5.68;4.60;;;21.80;99.90;;;;;;5017344;28;20175;-73
2023/08/05 11:31:22;;;;;;;6.43;4.55;;;21.60;1.00;;;;;;5035260;28;20218;-73
2023/08/05 11:33:48;;;;;;;6.65;4.75;;;21.60;1.00;;;;;;5035180;28;20167;-73
2023/08/05 11:36:14;;;;;;;4.97;4.47;;;21.60;99.90;;;;;;5034657;28;20222;-73
2023/08/05 11:38:39;;;;;;;5.22;4.72;;;21.50;1.00;;;;;;5016741;28;20179;-73
2023/08/05 11:41:05;;;;;;;9.40;4.95;;;21.60;1.00;;;;;;5034755;28;20183;-73
2023/08/05 11:43:32;;;;;;;10.32;5.35;;;21.50;1.00;;;;;;5034768;28;20175;-73
2023/08/05 11:45:58;;;;;;;5.57;4.63;;;21.50;1.00;;;;;;5034911;28;20191;-74
2023/08/05 11:48:25;;;;;;;6.30;5.05;;;21.60;1.00;;;;;;5016916;28;20651;-77
2023/08/05 11:50:57;;;;;;;5.45;4.90;;;21.50;1.00;;;;;;5034857;28;20302;-76
2023/08/05 11:53:23;;;;;;;6.88;5.45;;;21.50;1.00;;;;;;5016819;28;20171;-76
2023/08/05 11:55:49;;;;;;;5.68;5.07;;;21.50;1.00;;;;;;5034670;28;20183;-75
2023/08/05 11:58:14;;;;;;;6.47;5.10;;;21.50;1.00;;;;;;5016755;28;20199;-74
2023/08/05 12:00:46;;;;;;;20.00;11.48;;;21.60;99.90;;;;;;5016680;28;20270;-73
2023/08/05 12:03:13;;;;;;;7.22;5.50;;;21.70;1.00;;;;;;5016695;28;20214;-74
2023/08/05 12:05:42;;;;;;;7.78;5.13;;;21.70;1.00;;;;;;5016631;28;20198;-74
2023/08/05 12:08:09;;;;;;;8.10;5.35;;;21.60;99.90;;;;;;5034096;28;20199;-73
2023/08/05 12:10:35;;;;;;;7.18;5.18;;;21.50;1.00;;;;;;5016560;28;20199;-73
2023/08/05 12:13:06;;;;;;;6.63;4.90;;;21.60;1.00;;;;;;5016597;28;20613;-73
2023/08/05 12:15:32;;;;;;;6.88;5.05;;;21.50;99.90;;;;;;5034542;28;20155;-73
2023/08/05 12:17:59;;;;;;;5.90;4.40;;;21.40;99.90;;;;;;5033492;28;20273;-74
2023/08/05 12:20:27;;;;;;;5.25;4.75;;;21.20;1.00;;;;;;5034030;28;20266;-73
2023/08/05 12:22:54;;;;;;;5.30;4.65;;;21.10;1.00;;;;;;5034000;28;20175;-73
2023/08/05 12:25:20;;;;;;;5.85;4.68;;;21.00;99.90;;;;;;5034290;28;20175;-73
2023/08/05 12:27:45;;;;;;;6.35;4.78;;;20.90;99.90;;;;;;5033932;28;20203;-73
2023/08/05 12:30:12;;;;;;;6.43;5.20;;;20.90;99.90;;;;;;5033985;28;20261;-73
2023/08/05 12:32:37;;;;;;;6.20;5.10;;;20.90;1.00;;;;;;5034111;28;20531;-74
2023/08/05 12:35:04;;;;;;;7.78;4.88;;;21.00;1.00;;;;;;5034125;28;20182;-74
2023/08/05 12:37:33;;;;;;;5.88;4.93;;;21.00;1.00;;;;;;5015670;28;20218;-74
2023/08/05 12:39:59;;;;;;;7.30;5.15;;;21.00;99.90;;;;;;5016116;28;20172;-74
2023/08/05 12:42:25;;;;;;;6.60;5.05;;;21.10;18.50;;;;;;5034108;28;20639;-75